sensor_id;sensor_type;location;lat;lon;timestamp;pressure;altitude;pressure_sealevel;temperature;humidity
68580;BME280;55555;52.136;5.424;2022-12-10T00:01:36;101071.34;;;-0.82;100.00
68580;BME280;55555;52.136;5.424;2022-12-10T00:04:04;101080.00;;;-0.83;100.00
68580;BME280;55555;52.136;5.424;2022-12-10T00:06:34;101072.13;;;-0.86;100.00
68580;BME280;55555;52.136;5.424;2022-12-10T00:09:03;101078.25;;;-0.84;100.00
68580;BME280;55555;52.136;5.424;2022-12-10T00:11:32;101078.28;;;-0.83;100.00
68580;BME280;55555;52.136;5.424;2022-12-10T00:13:59;101074.81;;;-0.82;100.00
68580;BME280;55555;52.136;5.424;2022-12-10T00:16:27;101067.91;;;-0.80;100.00
68580;BME280;55555;52.136;5.424;2022-12-10T00:18:57;101074.00;;;-0.79;100.00
68580;BME280;55555;52.136;5.424;2022-12-10T00:21:27;101069.63;;;-0.80;100.00
68580;BME280;55555;52.136;5.424;2022-12-10T00:23:56;101066.97;;;-0.82;100.00
68580;BME280;55555;52.136;5.424;2022-12-10T00:26:28;101075.69;;;-0.81;100.00
68580;BME280;55555;52.136;5.424;2022-12-10T00:28:57;101070.41;;;-0.84;100.00
68580;BME280;55555;52.136;5.424;2022-12-10T00:31:28;101070.41;;;-0.84;100.00
68580;BME280;55555;52.136;5.424;2022-12-10T00:33:59;101061.75;;;-0.83;100.00
68580;BME280;55555;52.136;5.424;2022-12-10T00:36:30;101059.09;;;-0.85;100.00
68580;BME280;55555;52.136;5.424;2022-12-10T00:38:59;101063.50;;;-0.82;100.00
68580;BME280;55555;52.136;5.424;2022-12-10T00:41:27;101073.03;;;-0.84;100.00
68580;BME280;55555;52.136;5.424;2022-12-10T00:43:54;101072.19;;;-0.83;100.00
68580;BME280;55555;52.136;5.424;2022-12-10T00:46:22;101067.78;;;-0.87;100.00
68580;BME280;55555;52.136;5.424;2022-12-10T00:48:49;101069.53;;;-0.85;100.00
68580;BME280;55555;52.136;5.424;2022-12-10T00:51:20;101070.38;;;-0.86;100.00
68580;BME280;55555;52.136;5.424;2022-12-10T00:53:50;101066.13;;;-0.81;100.00
68580;BME280;55555;52.136;5.424;2022-12-10T00:56:20;101073.06;;;-0.83;100.00
68580;BME280;55555;52.136;5.424;2022-12-10T00:58:49;101068.66;;;-0.87;100.00
68580;BME280;55555;52.136;5.424;2022-12-10T01:01:24;101073.09;;;-0.81;100.00
68580;BME280;55555;52.136;5.424;2022-12-10T01:03:56;101072.25;;;-0.80;100.00
68580;BME280;55555;52.136;5.424;2022-12-10T01:06:30;101076.59;;;-0.79;100.00
68580;BME280;55555;52.136;5.424;2022-12-10T01:09:05;101075.75;;;-0.78;100.00
68580;BME280;55555;52.136;5.424;2022-12-10T01:11:36;101081.00;;;-0.77;100.00
68580;BME280;55555;52.136;5.424;2022-12-10T01:14:06;101090.56;;;-0.76;100.00
68580;BME280;55555;52.136;5.424;2022-12-10T01:16:36;101079.28;;;-0.75;100.00
68580;BME280;55555;52.136;5.424;2022-12-10T01:19:04;101088.97;;;-0.67;100.00
68580;BME280;55555;52.136;5.424;2022-12-10T01:21:33;101088.03;;;-0.71;100.00
68580;BME280;55555;52.136;5.424;2022-12-10T01:24:00;101104.59;;;-0.70;100.00
68580;BME280;55555;52.136;5.424;2022-12-10T01:26:30;101107.28;;;-0.66;100.00
68580;BME280;55555;52.136;5.424;2022-12-10T01:29:00;101095.09;;;-0.64;100.00
68580;BME280;55555;52.136;5.424;2022-12-10T01:31:33;101109.06;;;-0.63;100.00
68580;BME280;55555;52.136;5.424;2022-12-10T01:34:06;101098.63;;;-0.62;100.00
68580;BME280;55555;52.136;5.424;2022-12-10T01:36:38;101104.69;;;-0.64;100.00
68580;BME280;55555;52.136;5.424;2022-12-10T01:39:13;101107.38;;;-0.60;100.00
68580;BME280;55555;52.136;5.424;2022-12-10T01:46:51;101109.91;;;-0.66;100.00
68580;BME280;55555;52.136;5.424;2022-12-10T01:49:25;101106.41;;;-0.66;100.00
68580;BME280;55555;52.136;5.424;2022-12-10T01:52:01;101106.44;;;-0.63;100.00
68580;BME280;55555;52.136;5.424;2022-12-10T01:54:32;101103.88;;;-0.60;100.00
68580;BME280;55555;52.136;5.424;2022-12-10T01:57:04;101114.38;;;-0.59;100.00
68580;BME280;55555;52.136;5.424;2022-12-10T01:59:36;101109.13;;;-0.59;100.00
68580;BME280;55555;52.136;5.424;2022-12-10T02:05:23;101116.16;;;-0.56;100.00
68580;BME280;55555;52.136;5.424;2022-12-10T02:08:27;101120.50;;;-0.57;100.00
68580;BME280;55555;52.136;5.424;2022-12-10T02:11:27;101111.84;;;-0.51;100.00
68580;BME280;55555;52.136;5.424;2022-12-10T02:14:05;101110.13;;;-0.51;100.00
68580;BME280;55555;52.136;5.424;2022-12-10T02:16:44;101115.34;;;-0.51;100.00
68580;BME280;55555;52.136;5.424;2022-12-10T02:22:22;101109.28;;;-0.50;100.00
68580;BME280;55555;52.136;5.424;2022-12-10T02:24:53;101109.25;;;-0.51;100.00
68580;BME280;55555;52.136;5.424;2022-12-10T02:27:37;101107.47;;;-0.52;100.00
68580;BME280;55555;52.136;5.424;2022-12-10T02:30:21;101114.53;;;-0.48;100.00
68580;BME280;55555;52.136;5.424;2022-12-10T02:32:49;101117.91;;;-0.54;100.00
68580;BME280;55555;52.136;5.424;2022-12-10T02:35:27;101119.66;;;-0.53;100.00
68580;BME280;55555;52.136;5.424;2022-12-10T02:38:03;101123.09;;;-0.57;100.00
68580;BME280;55555;52.136;5.424;2022-12-10T02:40:43;101123.97;;;-0.58;100.00
68580;BME280;55555;52.136;5.424;2022-12-10T02:43:13;101129.28;;;-0.50;100.00
68580;BME280;55555;52.136;5.424;2022-12-10T02:45:42;101126.72;;;-0.49;100.00
68580;BME280;55555;52.136;5.424;2022-12-10T02:48:12;101125.81;;;-0.51;100.00
68580;BME280;55555;52.136;5.424;2022-12-10T02:50:42;101130.16;;;-0.51;100.00
68580;BME280;55555;52.136;5.424;2022-12-10T02:53:10;101128.31;;;-0.58;100.00
68580;BME280;55555;52.136;5.424;2022-12-10T02:55:53;101120.53;;;-0.52;100.00
68580;BME280;55555;52.136;5.424;2022-12-10T03:01:42;101119.72;;;-0.50;100.00
68580;BME280;55555;52.136;5.424;2022-12-10T03:04:26;101126.63;;;-0.53;100.00
68580;BME280;55555;52.136;5.424;2022-12-10T03:07:11;101115.31;;;-0.52;100.00
68580;BME280;55555;52.136;5.424;2022-12-10T03:09:51;101127.53;;;-0.51;100.00
68580;BME280;55555;52.136;5.424;2022-12-10T03:12:25;101117.97;;;-0.51;100.00
68580;BME280;55555;52.136;5.424;2022-12-10T03:14:59;101124.03;;;-0.52;100.00
68580;BME280;55555;52.136;5.424;2022-12-10T03:17:31;101118.78;;;-0.53;100.00
68580;BME280;55555;52.136;5.424;2022-12-10T03:20:00;101112.72;;;-0.51;100.00
68580;BME280;55555;52.136;5.424;2022-12-10T03:22:29;101111.91;;;-0.48;100.00
68580;BME280;55555;52.136;5.424;2022-12-10T03:24:59;101115.28;;;-0.54;100.00
68580;BME280;55555;52.136;5.424;2022-12-10T03:27:27;101109.16;;;-0.57;100.00
68580;BME280;55555;52.136;5.424;2022-12-10T03:29:57;101114.50;;;-0.50;100.00
68580;BME280;55555;52.136;5.424;2022-12-10T03:32:27;101108.34;;;-0.52;100.00
68580;BME280;55555;52.136;5.424;2022-12-10T03:34:58;101113.66;;;-0.49;100.00
68580;BME280;55555;52.136;5.424;2022-12-10T03:37:27;101113.69;;;-0.46;100.00
68580;BME280;55555;52.136;5.424;2022-12-10T03:39:55;101120.66;;;-0.46;100.00
68580;BME280;55555;52.136;5.424;2022-12-10T03:42:23;101118.03;;;-0.46;100.00
68580;BME280;55555;52.136;5.424;2022-12-10T03:44:51;101115.41;;;-0.48;100.00
68580;BME280;55555;52.136;5.424;2022-12-10T03:47:19;101111.84;;;-0.51;100.00
68580;BME280;55555;52.136;5.424;2022-12-10T03:49:46;101111.03;;;-0.49;100.00
68580;BME280;55555;52.136;5.424;2022-12-10T03:52:13;101103.22;;;-0.47;100.00
68580;BME280;55555;52.136;5.424;2022-12-10T03:54:41;101106.69;;;-0.48;100.00
68580;BME280;55555;52.136;5.424;2022-12-10T03:57:08;101110.16;;;-0.49;100.00
68580;BME280;55555;52.136;5.424;2022-12-10T03:59:35;101115.38;;;-0.49;100.00
68580;BME280;55555;52.136;5.424;2022-12-10T04:02:02;101104.94;;;-0.49;100.00
68580;BME280;55555;52.136;5.424;2022-12-10T04:04:29;101118.00;;;-0.48;100.00
68580;BME280;55555;52.136;5.424;2022-12-10T04:06:57;101114.41;;;-0.56;100.00
68580;BME280;55555;52.136;5.424;2022-12-10T04:09:24;101114.34;;;-0.60;100.00
68580;BME280;55555;52.136;5.424;2022-12-10T04:11:55;101107.41;;;-0.58;100.00
68580;BME280;55555;52.136;5.424;2022-12-10T04:14:24;101107.50;;;-0.51;100.00
68580;BME280;55555;52.136;5.424;2022-12-10T04:17:11;101114.44;;;-0.53;100.00
68580;BME280;55555;52.136;5.424;2022-12-10T04:19:39;101117.09;;;-0.51;100.00
68580;BME280;55555;52.136;5.424;2022-12-10T04:22:06;101116.06;;;-0.61;100.00
68580;BME280;55555;52.136;5.424;2022-12-10T04:24:52;101117.00;;;-0.57;100.00
68580;BME280;55555;52.136;5.424;2022-12-10T04:27:38;101120.38;;;-0.63;100.00
68580;BME280;55555;52.136;5.424;2022-12-10T04:30:09;101123.97;;;-0.58;100.00
68580;BME280;55555;52.136;5.424;2022-12-10T04:32:38;101127.44;;;-0.59;100.00
68580;BME280;55555;52.136;5.424;2022-12-10T04:35:05;101122.13;;;-0.65;100.00
68580;BME280;55555;52.136;5.424;2022-12-10T04:37:33;101119.38;;;-0.73;100.00
68580;BME280;55555;52.136;5.424;2022-12-10T04:40:00;101120.34;;;-0.67;100.00
68580;BME280;55555;52.136;5.424;2022-12-10T04:42:28;101113.34;;;-0.68;100.00
68580;BME280;55555;52.136;5.424;2022-12-10T04:44:55;101110.78;;;-0.64;100.00
68580;BME280;55555;52.136;5.424;2022-12-10T04:47:22;101108.06;;;-0.71;100.00
68580;BME280;55555;52.136;5.424;2022-12-10T04:49:51;101116.72;;;-0.74;100.00
68580;BME280;55555;52.136;5.424;2022-12-10T04:52:18;101110.63;;;-0.75;100.00
68580;BME280;55555;52.136;5.424;2022-12-10T04:54:45;101119.44;;;-0.68;100.00
68580;BME280;55555;52.136;5.424;2022-12-10T04:57:12;101122.84;;;-0.72;100.00
68580;BME280;55555;52.136;5.424;2022-12-10T04:59:40;101120.34;;;-0.67;100.00
68580;BME280;55555;52.136;5.424;2022-12-10T05:02:07;101127.34;;;-0.65;100.00
68580;BME280;55555;52.136;5.424;2022-12-10T05:04:35;101122.97;;;-0.64;100.00
68580;BME280;55555;52.136;5.424;2022-12-10T05:07:02;101127.31;;;-0.66;100.00
68580;BME280;55555;52.136;5.424;2022-12-10T05:09:29;101123.72;;;-0.71;100.00
68580;BME280;55555;52.136;5.424;2022-12-10T05:11:56;101121.97;;;-0.73;100.00
68580;BME280;55555;52.136;5.424;2022-12-10T05:14:24;101129.03;;;-0.67;100.00
68580;BME280;55555;52.136;5.424;2022-12-10T05:16:51;101132.47;;;-0.69;100.00
68580;BME280;55555;52.136;5.424;2022-12-10T05:19:19;101131.66;;;-0.67;100.00
68580;BME280;55555;52.136;5.424;2022-12-10T05:21:48;101128.19;;;-0.66;100.00
68580;BME280;55555;52.136;5.424;2022-12-10T05:24:34;101128.97;;;-0.71;100.00
68580;BME280;55555;52.136;5.424;2022-12-10T05:27:01;101133.34;;;-0.69;100.00
68580;BME280;55555;52.136;5.424;2022-12-10T05:29:28;101124.66;;;-0.68;100.00
68580;BME280;55555;52.136;5.424;2022-12-10T05:31:56;101123.81;;;-0.67;100.00
68580;BME280;55555;52.136;5.424;2022-12-10T05:34:23;101130.69;;;-0.72;100.00
68580;BME280;55555;52.136;5.424;2022-12-10T05:36:52;101129.94;;;-0.66;100.00
68580;BME280;55555;52.136;5.424;2022-12-10T05:39:19;101131.50;;;-0.75;100.00
68580;BME280;55555;52.136;5.424;2022-12-10T05:41:46;101132.47;;;-0.69;100.00
68580;BME280;55555;52.136;5.424;2022-12-10T05:44:13;101137.69;;;-0.71;100.00
68580;BME280;55555;52.136;5.424;2022-12-10T05:46:41;101134.28;;;-0.67;100.00
68580;BME280;55555;52.136;5.424;2022-12-10T05:49:08;101137.78;;;-0.63;100.00
68580;BME280;55555;52.136;5.424;2022-12-10T05:51:37;101143.91;;;-0.63;100.00
68580;BME280;55555;52.136;5.424;2022-12-10T05:54:06;101140.34;;;-0.68;100.00
68580;BME280;55555;52.136;5.424;2022-12-10T05:56:36;101135.09;;;-0.69;100.00
68580;BME280;55555;52.136;5.424;2022-12-10T05:59:04;101140.34;;;-0.68;100.00
68580;BME280;55555;52.136;5.424;2022-12-10T06:01:38;101135.84;;;-0.75;100.00
68580;BME280;55555;52.136;5.424;2022-12-10T06:04:05;101141.09;;;-0.74;100.00
68580;BME280;55555;52.136;5.424;2022-12-10T06:06:36;101145.47;;;-0.73;100.00
68580;BME280;55555;52.136;5.424;2022-12-10T06:09:06;101138.53;;;-0.72;100.00
68580;BME280;55555;52.136;5.424;2022-12-10T06:11:34;101142.91;;;-0.71;100.00
68580;BME280;55555;52.136;5.424;2022-12-10T06:14:01;101141.97;;;-0.76;100.00
68580;BME280;55555;52.136;5.424;2022-12-10T06:16:29;101140.13;;;-0.80;100.00
68580;BME280;55555;52.136;5.424;2022-12-10T06:18:56;101145.44;;;-0.77;100.00
68580;BME280;55555;52.136;5.424;2022-12-10T06:21:25;101149.78;;;-0.78;100.00
68580;BME280;55555;52.136;5.424;2022-12-10T06:23:52;101151.50;;;-0.78;100.00
68580;BME280;55555;52.136;5.424;2022-12-10T06:26:24;101145.34;;;-0.82;100.00
68580;BME280;55555;52.136;5.424;2022-12-10T06:28:52;101142.66;;;-0.85;100.00
68580;BME280;55555;52.136;5.424;2022-12-10T06:31:20;101149.63;;;-0.87;100.00
68580;BME280;55555;52.136;5.424;2022-12-10T06:33:48;101150.63;;;-0.79;100.00
68580;BME280;55555;52.136;5.424;2022-12-10T06:36:17;101155.81;;;-0.80;100.00
68580;BME280;55555;52.136;5.424;2022-12-10T06:38:45;101144.50;;;-0.79;100.00
68580;BME280;55555;52.136;5.424;2022-12-10T06:41:15;101153.16;;;-0.82;100.00
68580;BME280;55555;52.136;5.424;2022-12-10T06:43:43;101157.56;;;-0.79;100.00
68580;BME280;55555;52.136;5.424;2022-12-10T06:46:13;101167.97;;;-0.82;100.00
68580;BME280;55555;52.136;5.424;2022-12-10T06:48:41;101167.03;;;-0.84;100.00
68580;BME280;55555;52.136;5.424;2022-12-10T06:51:11;101166.28;;;-0.79;100.00
68580;BME280;55555;52.136;5.424;2022-12-10T06:53:40;101168.81;;;-0.83;100.00
68580;BME280;55555;52.136;5.424;2022-12-10T06:56:11;101173.19;;;-0.82;100.00
68580;BME280;55555;52.136;5.424;2022-12-10T06:58:42;101169.66;;;-0.84;100.00
68580;BME280;55555;52.136;5.424;2022-12-10T07:01:22;101170.66;;;-0.78;100.00
68580;BME280;55555;52.136;5.424;2022-12-10T07:03:55;101177.56;;;-0.81;100.00
68580;BME280;55555;52.136;5.424;2022-12-10T07:06:24;101179.34;;;-0.79;100.00
68580;BME280;55555;52.136;5.424;2022-12-10T07:08:52;101177.66;;;-0.77;100.00
68580;BME280;55555;52.136;5.424;2022-12-10T07:11:21;101174.09;;;-0.80;100.00
68580;BME280;55555;52.136;5.424;2022-12-10T07:13:49;101181.97;;;-0.79;100.00
68580;BME280;55555;52.136;5.424;2022-12-10T07:16:19;101191.59;;;-0.75;100.00
68580;BME280;55555;52.136;5.424;2022-12-10T07:18:49;101190.66;;;-0.80;100.00
68580;BME280;55555;52.136;5.424;2022-12-10T07:23:53;101198.56;;;-0.74;100.00
68580;BME280;55555;52.136;5.424;2022-12-10T07:26:24;101203.75;;;-0.75;100.00
68580;BME280;55555;52.136;5.424;2022-12-10T07:28:52;101207.06;;;-0.87;100.00
68580;BME280;55555;52.136;5.424;2022-12-10T07:31:20;101200.22;;;-0.80;100.00
68580;BME280;55555;52.136;5.424;2022-12-10T07:33:50;101202.88;;;-0.77;100.00
68580;BME280;55555;52.136;5.424;2022-12-10T07:36:18;101209.84;;;-0.78;100.00
68580;BME280;55555;52.136;5.424;2022-12-10T07:38:46;101205.47;;;-0.79;100.00
68580;BME280;55555;52.136;5.424;2022-12-10T07:41:14;101209.00;;;-0.77;100.00
68580;BME280;55555;52.136;5.424;2022-12-10T07:43:43;101207.09;;;-0.84;100.00
68580;BME280;55555;52.136;5.424;2022-12-10T07:46:26;101206.28;;;-0.81;100.00
68580;BME280;55555;52.136;5.424;2022-12-10T07:48:55;101206.25;;;-0.83;100.00
68580;BME280;55555;52.136;5.424;2022-12-10T07:51:22;101211.44;;;-0.84;100.00
68580;BME280;55555;52.136;5.424;2022-12-10T07:53:53;101209.81;;;-0.79;100.00
68580;BME280;55555;52.136;5.424;2022-12-10T07:56:22;101212.47;;;-0.76;100.00
68580;BME280;55555;52.136;5.424;2022-12-10T07:58:51;101211.59;;;-0.77;100.00
68580;BME280;55555;52.136;5.424;2022-12-10T08:01:23;101213.31;;;-0.76;100.00
68580;BME280;55555;52.136;5.424;2022-12-10T08:03:52;101212.28;;;-0.87;100.00
68580;BME280;55555;52.136;5.424;2022-12-10T08:06:23;101221.78;;;-0.90;100.00
68580;BME280;55555;52.136;5.424;2022-12-10T08:08:52;101226.19;;;-0.86;100.00
68580;BME280;55555;52.136;5.424;2022-12-10T08:11:21;101234.75;;;-0.95;100.00
68580;BME280;55555;52.136;5.424;2022-12-10T08:13:49;101232.31;;;-0.86;100.00
68580;BME280;55555;52.136;5.424;2022-12-10T08:16:24;101227.06;;;-0.86;100.00
68580;BME280;55555;52.136;5.424;2022-12-10T08:18:54;101234.03;;;-0.86;100.00
68580;BME280;55555;52.136;5.424;2022-12-10T08:21:24;101235.91;;;-0.81;100.00
68580;BME280;55555;52.136;5.424;2022-12-10T08:23:54;101236.78;;;-0.80;100.00
68580;BME280;55555;52.136;5.424;2022-12-10T08:26:24;101232.38;;;-0.83;100.00
68580;BME280;55555;52.136;5.424;2022-12-10T08:28:53;101239.44;;;-0.77;100.00
68580;BME280;55555;52.136;5.424;2022-12-10T08:31:22;101238.56;;;-0.78;100.00
68580;BME280;55555;52.136;5.424;2022-12-10T08:33:50;101240.34;;;-0.75;100.00
68580;BME280;55555;52.136;5.424;2022-12-10T08:36:19;101242.97;;;-0.74;100.00
68580;BME280;55555;52.136;5.424;2022-12-10T08:38:47;101244.78;;;-0.71;100.00
68580;BME280;55555;52.136;5.424;2022-12-10T08:41:21;101245.63;;;-0.72;100.00
68580;BME280;55555;52.136;5.424;2022-12-10T08:43:51;101254.31;;;-0.73;100.00
68580;BME280;55555;52.136;5.424;2022-12-10T08:46:19;101255.94;;;-0.80;100.00
68580;BME280;55555;52.136;5.424;2022-12-10T08:48:46;101269.94;;;-0.75;100.00
68580;BME280;55555;52.136;5.424;2022-12-10T08:51:15;101264.78;;;-0.71;100.00
68580;BME280;55555;52.136;5.424;2022-12-10T08:53:44;101259.50;;;-0.75;100.00
68580;BME280;55555;52.136;5.424;2022-12-10T08:56:11;101271.72;;;-0.74;100.00
68580;BME280;55555;52.136;5.424;2022-12-10T08:58:39;101273.47;;;-0.73;100.00
68580;BME280;55555;52.136;5.424;2022-12-10T09:01:12;101280.44;;;-0.73;100.00
68580;BME280;55555;52.136;5.424;2022-12-10T09:03:41;101275.19;;;-0.73;100.00
68580;BME280;55555;52.136;5.424;2022-12-10T09:06:10;101286.59;;;-0.69;100.00
68580;BME280;55555;52.136;5.424;2022-12-10T09:08:42;101287.34;;;-0.75;100.00
68580;BME280;55555;52.136;5.424;2022-12-10T09:11:20;101282.97;;;-0.78;100.00
68580;BME280;55555;52.136;5.424;2022-12-10T09:13:49;101289.94;;;-0.78;100.00
68580;BME280;55555;52.136;5.424;2022-12-10T09:16:17;101291.72;;;-0.74;100.00
68580;BME280;55555;52.136;5.424;2022-12-10T09:18:44;101296.09;;;-0.73;100.00
68580;BME280;55555;52.136;5.424;2022-12-10T09:21:16;101301.34;;;-0.71;100.00
68580;BME280;55555;52.136;5.424;2022-12-10T09:23:44;101296.19;;;-0.68;100.00
68580;BME280;55555;52.136;5.424;2022-12-10T09:26:14;101292.63;;;-0.72;100.00
68580;BME280;55555;52.136;5.424;2022-12-10T09:28:43;101305.84;;;-0.66;100.00
68580;BME280;55555;52.136;5.424;2022-12-10T09:31:12;101299.72;;;-0.66;100.00
68580;BME280;55555;52.136;5.424;2022-12-10T09:33:45;101311.88;;;-0.68;100.00
68580;BME280;55555;52.136;5.424;2022-12-10T09:36:14;101301.38;;;-0.70;100.00
68580;BME280;55555;52.136;5.424;2022-12-10T09:38:42;101312.81;;;-0.65;100.00
68580;BME280;55555;52.136;5.424;2022-12-10T09:41:15;101311.06;;;-0.66;100.00
68580;BME280;55555;52.136;5.424;2022-12-10T09:44:20;101305.84;;;-0.64;100.00
68580;BME280;55555;52.136;5.424;2022-12-10T09:46:55;101311.16;;;-0.60;100.00
68580;BME280;55555;52.136;5.424;2022-12-10T09:52:32;101310.25;;;-0.62;100.00
68580;BME280;55555;52.136;5.424;2022-12-10T09:55:10;101315.56;;;-0.57;100.00
68580;BME280;55555;52.136;5.424;2022-12-10T09:57:51;101317.28;;;-0.58;100.00
68580;BME280;55555;52.136;5.424;2022-12-10T10:00:25;101323.38;;;-0.59;100.00
68580;BME280;55555;52.136;5.424;2022-12-10T10:03:04;101313.03;;;-0.54;100.00
68580;BME280;55555;52.136;5.424;2022-12-10T10:05:39;101309.63;;;-0.49;100.00
68580;BME280;55555;52.136;5.424;2022-12-10T10:10:54;101324.31;;;-0.54;100.00
68580;BME280;55555;52.136;5.424;2022-12-10T10:13:35;101317.41;;;-0.52;100.00
68580;BME280;55555;52.136;5.424;2022-12-10T10:16:39;101322.72;;;-0.47;100.00
68580;BME280;55555;52.136;5.424;2022-12-10T10:19:17;101326.09;;;-0.53;100.00
68580;BME280;55555;52.136;5.424;2022-12-10T10:21:49;101329.56;;;-0.52;100.00
68580;BME280;55555;52.136;5.424;2022-12-10T10:24:19;101322.53;;;-0.58;100.00
68580;BME280;55555;52.136;5.424;2022-12-10T10:26:57;101321.72;;;-0.55;100.00
68580;BME280;55555;52.136;5.424;2022-12-10T10:29:25;101323.50;;;-0.51;100.00
68580;BME280;55555;52.136;5.424;2022-12-10T10:34:57;101323.66;;;-0.42;100.00
68580;BME280;55555;52.136;5.424;2022-12-10T10:37:28;101314.97;;;-0.41;100.00
68580;BME280;55555;52.136;5.424;2022-12-10T10:39:57;101323.72;;;-0.39;100.00
68580;BME280;55555;52.136;5.424;2022-12-10T10:42:41;101322.88;;;-0.38;100.00
68580;BME280;55555;52.136;5.424;2022-12-10T10:48:12;101313.31;;;-0.38;100.00
68580;BME280;55555;52.136;5.424;2022-12-10T10:50:48;101311.56;;;-0.37;100.00
68580;BME280;55555;52.136;5.424;2022-12-10T10:55:51;101314.78;;;-0.52;100.00
68580;BME280;55555;52.136;5.424;2022-12-10T10:58:21;101317.50;;;-0.47;100.00
68580;BME280;55555;52.136;5.424;2022-12-10T11:01:01;101321.09;;;-0.41;100.00
68580;BME280;55555;52.136;5.424;2022-12-10T11:03:34;101316.69;;;-0.43;100.00
68580;BME280;55555;52.136;5.424;2022-12-10T11:06:06;101322.03;;;-0.37;100.00
68580;BME280;55555;52.136;5.424;2022-12-10T11:08:37;101316.75;;;-0.40;100.00
68580;BME280;55555;52.136;5.424;2022-12-10T11:11:11;101316.00;;;-0.31;100.00
68580;BME280;55555;52.136;5.424;2022-12-10T11:13:50;101316.09;;;-0.28;100.00
68580;BME280;55555;52.136;5.424;2022-12-10T11:16:21;101312.41;;;-0.40;100.00
68580;BME280;55555;52.136;5.424;2022-12-10T11:18:58;101310.75;;;-0.34;100.00
68580;BME280;55555;52.136;5.424;2022-12-10T11:21:32;101314.25;;;-0.34;100.00
68580;BME280;55555;52.136;5.424;2022-12-10T11:24:10;101315.97;;;-0.36;100.00
68580;BME280;55555;52.136;5.424;2022-12-10T11:35:02;101305.41;;;-0.41;100.00
68580;BME280;55555;52.136;5.424;2022-12-10T11:49:35;101289.66;;;-0.45;100.00
68580;BME280;55555;52.136;5.424;2022-12-10T11:59:02;101295.16;;;-0.28;100.00
68580;BME280;55555;52.136;5.424;2022-12-10T12:04:16;101296.22;;;-0.17;100.00
68580;BME280;55555;52.136;5.424;2022-12-10T12:15:25;101303.25;;;-0.15;100.00
68580;BME280;55555;52.136;5.424;2022-12-10T12:18:21;101314.56;;;-0.16;100.00
68580;BME280;55555;52.136;5.424;2022-12-10T12:21:12;101314.59;;;-0.14;100.00
68580;BME280;55555;52.136;5.424;2022-12-10T12:24:01;101305.94;;;-0.12;100.00
68580;BME280;55555;52.136;5.424;2022-12-10T12:29:49;101299.78;;;-0.14;100.00
68580;BME280;55555;52.136;5.424;2022-12-10T12:32:35;101301.53;;;-0.14;100.00
68580;BME280;55555;52.136;5.424;2022-12-10T12:37:51;101304.13;;;-0.14;100.00
68580;BME280;55555;52.136;5.424;2022-12-10T12:41:15;101305.75;;;-0.22;100.00
68580;BME280;55555;52.136;5.424;2022-12-10T12:46:16;101298.00;;;-0.16;100.00
68580;BME280;55555;52.136;5.424;2022-12-10T12:48:57;101301.41;;;-0.20;100.00
68580;BME280;55555;52.136;5.424;2022-12-10T12:51:54;101303.13;;;-0.22;100.00
68580;BME280;55555;52.136;5.424;2022-12-10T12:54:27;101303.91;;;-0.26;100.00
68580;BME280;55555;52.136;5.424;2022-12-10T12:57:10;101302.34;;;-0.17;100.00
68580;BME280;55555;52.136;5.424;2022-12-10T13:00:16;101311.09;;;-0.15;100.00
68580;BME280;55555;52.136;5.424;2022-12-10T13:05:38;101309.22;;;-0.23;100.00
68580;BME280;55555;52.136;5.424;2022-12-10T13:08:15;101310.13;;;-0.20;100.00
68580;BME280;55555;52.136;5.424;2022-12-10T13:10:52;101311.13;;;-0.13;100.00
68580;BME280;55555;52.136;5.424;2022-12-10T13:13:24;101304.16;;;-0.13;100.00
68580;BME280;55555;52.136;5.424;2022-12-10T13:15:55;101306.78;;;-0.13;100.00
68580;BME280;55555;52.136;5.424;2022-12-10T13:18:37;101298.09;;;-0.12;100.00
68580;BME280;55555;52.136;5.424;2022-12-10T13:21:29;101299.91;;;-0.06;100.00
68580;BME280;55555;52.136;5.424;2022-12-10T13:24:09;101306.81;;;-0.11;100.00
68580;BME280;55555;52.136;5.424;2022-12-10T13:26:42;101301.53;;;-0.14;100.00
68580;BME280;55555;52.136;5.424;2022-12-10T13:29:45;101300.69;;;-0.12;100.00
68580;BME280;55555;52.136;5.424;2022-12-10T13:32:21;101308.56;;;-0.09;100.00
68580;BME280;55555;52.136;5.424;2022-12-10T13:49:04;101305.94;;;-0.12;100.00
68580;BME280;55555;52.136;5.424;2022-12-10T13:52:01;101306.75;;;-0.14;100.00
68580;BME280;55555;52.136;5.424;2022-12-10T13:55:05;101312.84;;;-0.14;100.00
68580;BME280;55555;52.136;5.424;2022-12-10T14:00:45;101318.13;;;-0.12;100.00
68580;BME280;55555;52.136;5.424;2022-12-10T14:08:59;101322.50;;;-0.10;100.00
68580;BME280;55555;52.136;5.424;2022-12-10T14:12:02;101321.66;;;-0.09;100.00
68580;BME280;55555;52.136;5.424;2022-12-10T14:14:38;101332.97;;;-0.08;100.00
68580;BME280;55555;52.136;5.424;2022-12-10T14:17:19;101336.47;;;-0.08;100.00
68580;BME280;55555;52.136;5.424;2022-12-10T14:19:53;101331.19;;;-0.11;100.00
68580;BME280;55555;52.136;5.424;2022-12-10T14:25:09;101334.69;;;-0.12;100.00
68580;BME280;55555;52.136;5.424;2022-12-10T14:27:39;101342.53;;;-0.12;100.00
68580;BME280;55555;52.136;5.424;2022-12-10T14:30:19;101331.97;;;-0.16;100.00
68580;BME280;55555;52.136;5.424;2022-12-10T14:32:49;101331.19;;;-0.12;100.00
68580;BME280;55555;52.136;5.424;2022-12-10T14:35:23;101326.88;;;-0.09;100.00
68580;BME280;55555;52.136;5.424;2022-12-10T14:37:53;101327.72;;;-0.11;100.00
68580;BME280;55555;52.136;5.424;2022-12-10T14:40:26;101334.78;;;-0.06;100.00
68580;BME280;55555;52.136;5.424;2022-12-10T14:43:05;101338.28;;;-0.05;100.00
68580;BME280;55555;52.136;5.424;2022-12-10T14:45:46;101351.41;;;-0.02;100.00
68580;BME280;55555;52.136;5.424;2022-12-10T14:48:19;101352.19;;;-0.06;100.00
68580;BME280;55555;52.136;5.424;2022-12-10T14:50:46;101359.22;;;-0.04;100.00
68580;BME280;55555;52.136;5.424;2022-12-10T14:53:24;101354.72;;;-0.12;100.00
68580;BME280;55555;52.136;5.424;2022-12-10T14:56:05;101353.06;;;-0.07;100.00